createdAt,value
2022-11-28T00:01:22.334Z,98509.78968256856
2022-11-28T00:04:19.954Z,98508.28127998799
2022-11-28T00:07:19.716Z,98511.94927761407
2022-11-28T00:11:16.624Z,98504.71845313814
2022-11-28T00:14:18.611Z,98496.86426902204
2022-11-28T00:17:16.570Z,98491.38791810218
2022-11-28T00:21:17.473Z,98488.41120869684
2022-11-28T00:24:16.851Z,98485.7138986768
2022-11-28T00:27:17.236Z,98490.30683602547
2022-11-28T00:31:19.577Z,98488.76660412774
2022-11-28T00:34:16.530Z,98492.40711340647
2022-11-28T00:37:16.588Z,98481.64935479024
2022-11-28T00:41:19.147Z,98483.256238288
2022-11-28T00:44:16.271Z,98478.24049637117
2022-11-28T00:47:16.063Z,98472.3281133492
2022-11-28T00:51:18.235Z,98479.99263453358
2022-11-28T00:54:16.180Z,98475.7553811811
2022-11-28T00:57:16.705Z,98472.34234448284
2022-11-28T01:01:19.379Z,98461.25823352701
2022-11-28T01:04:17.972Z,98461.01634542146
2022-11-28T01:07:16.990Z,98456.26066848064
2022-11-28T01:11:16.695Z,98456.83399661962
2022-11-28T01:14:18.544Z,98456.39738673842
2022-11-28T01:17:17.318Z,98452.81295982595
2022-11-28T01:21:16.701Z,98444.86828088533
2022-11-28T01:24:17.135Z,98448.7861570641
2022-11-28T01:27:16.831Z,98446.846027687
2022-11-28T01:31:25.747Z,98440.48409446681
2022-11-28T01:34:18.295Z,98437.1524291142
2022-11-28T01:37:17.582Z,98432.17292342415
2022-11-28T02:01:18.225Z,98416.09098105505
2022-11-28T02:04:18.544Z,98408.5199889329
2022-11-28T02:07:16.904Z,98406.12301222006
2022-11-28T02:31:33.135Z,98384.89457705675
2022-11-28T02:34:27.401Z,98381.54018044552
2022-11-28T02:37:24.859Z,98369.98721314987
2022-11-28T02:41:27.203Z,98370.26919602697
2022-11-28T02:44:21.109Z,98369.64019654621
2022-11-28T02:47:22.758Z,98363.58836387903
2022-11-28T02:51:25.613Z,98364.5655679983
2022-11-28T02:54:18.092Z,98366.50326717005
2022-11-28T02:57:17.320Z,98358.66333178912
2022-11-28T03:01:20.256Z,98365.54548141375
2022-11-28T03:04:24.363Z,98367.40249211721
2022-11-28T03:07:27.817Z,98359.00042788913
2022-11-28T03:11:24.644Z,98362.28009985361
2022-11-28T03:14:27.611Z,98362.32093535567
2022-11-28T03:17:24.781Z,98370.47107966935
2022-11-28T03:21:24.533Z,98374.01637071361
2022-11-28T03:24:24.619Z,98370.77990962136
2022-11-28T03:27:23.513Z,98369.5578716662
2022-11-28T03:31:20.632Z,98367.4819398029
2022-11-28T03:34:21.511Z,98374.88147058056
2022-11-28T03:37:21.752Z,98368.08671424634
2022-11-28T03:41:20.557Z,98365.12139004942
2022-11-28T03:44:20.257Z,98363.80573831504
2022-11-28T03:47:17.564Z,98362.03129905186
2022-11-28T03:51:21.317Z,98369.70406393717
2022-11-28T03:54:22.434Z,98371.6689968649
2022-11-28T03:57:22.213Z,98368.95652743426
2022-11-28T04:01:27.712Z,98368.42680606642
2022-11-28T04:04:27.360Z,98365.44450395179
2022-11-28T04:07:25.178Z,98355.89587948524
2022-11-28T04:21:24.056Z,98352.40218758334
2022-11-28T04:41:22.641Z,98332.61788227079
2022-11-28T04:44:22.019Z,98341.75871527885
2022-11-28T04:47:17.032Z,98337.44830098203
2022-11-28T04:51:21.651Z,98340.49538562099
2022-11-28T04:54:23.506Z,98339.36520665218
2022-11-28T04:57:23.567Z,98332.75390740954
2022-11-28T05:01:21.254Z,98331.45026387341
2022-11-28T05:04:22.817Z,98333.49344439746
2022-11-28T05:07:16.732Z,98332.68278489134
2022-11-28T05:11:17.175Z,98331.22045144106
2022-11-28T05:14:19.516Z,98332.17870880142
2022-11-28T05:17:17.216Z,98332.10486566857
2022-11-28T05:21:16.824Z,98333.13681600009
2022-11-28T05:24:17.286Z,98327.37795285226
2022-11-28T05:27:17.428Z,98334.88759441715
2022-11-28T05:31:18.019Z,98325.11863407798
2022-11-28T05:34:16.653Z,98321.5968108769
2022-11-28T05:37:16.851Z,98320.87941826035
2022-11-28T05:41:19.971Z,98318.00637451005
2022-11-28T05:44:17.427Z,98327.67870684972
2022-11-28T05:47:16.767Z,98328.7580139777
2022-11-28T05:51:16.372Z,98315.56096222506
2022-11-28T05:54:16.545Z,98320.58845996732
2022-11-28T05:57:16.488Z,98315.60161352556
2022-11-28T06:11:17.034Z,98308.38061914325
2022-11-28T06:14:16.171Z,98307.74690925443
2022-11-28T06:17:16.173Z,98308.02934157276
2022-11-28T06:21:16.106Z,98303.98546305463
2022-11-28T06:24:16.494Z,98296.70045773525
2022-11-28T06:27:16.530Z,98295.1314715228
2022-11-28T06:31:19.124Z,98290.61586127146
2022-11-28T06:34:16.451Z,98288.99189714981
2022-11-28T06:37:16.430Z,98291.64357741353
2022-11-28T06:41:18.739Z,98288.00304496687
2022-11-28T06:44:16.733Z,98283.35493520235
2022-11-28T06:47:16.471Z,98286.34086380932
2022-11-28T06:51:17.731Z,98282.3551392891
2022-11-28T06:54:16.731Z,98283.15579864748
2022-11-28T06:57:16.611Z,98279.68771293067
2022-11-28T07:01:19.275Z,98278.54997369733
2022-11-28T07:04:16.415Z,98274.62911323793
2022-11-28T07:07:17.086Z,98273.93413785877
2022-11-28T07:11:18.913Z,98274.49699310302
2022-11-28T07:14:16.559Z,98282.07219390495
2022-11-28T07:17:16.380Z,98278.43189110965
2022-11-28T07:21:17.584Z,98285.30850241087
2022-11-28T07:24:17.411Z,98288.73457518898
2022-11-28T07:27:16.813Z,98283.91838560355
2022-11-28T07:31:19.115Z,98284.42854319366
2022-11-28T07:34:17.169Z,98281.93226358059
2022-11-28T07:37:16.676Z,98282.67589859341
2022-11-28T07:41:17.172Z,98283.33880507518
2022-11-28T07:44:18.267Z,98280.79360931194
2022-11-28T07:47:16.614Z,98283.00747717694
2022-11-28T10:01:24.876Z,98156.50127908701
2022-11-28T10:04:28.421Z,98148.98801505627
2022-11-28T10:07:25.391Z,98139.76168762892
2022-11-28T10:11:31.410Z,98134.35030772985
2022-11-28T10:14:47.931Z,98133.23578230085
2022-11-28T10:17:27.506Z,98130.28853879089
2022-11-28T10:21:26.181Z,98124.31400084545
2022-11-28T10:24:20.455Z,98118.29061664264
2022-11-28T10:27:16.882Z,98116.48243224173
2022-11-28T10:31:30.133Z,98119.2565072577
2022-11-28T10:34:22.866Z,98117.25875210148
2022-11-28T10:37:23.032Z,98118.377776642
2022-11-28T10:41:23.843Z,98114.05803947413
2022-11-28T12:51:29.763Z,97971.83077999635
2022-11-28T12:54:32.798Z,97969.82431204786
2022-11-28T12:57:26.840Z,97974.05117920302
2022-11-28T13:01:33.560Z,97974.81126537755
2022-11-28T13:04:48.658Z,97963.50060078473
2022-11-28T13:11:33.290Z,97954.44898966637
2022-11-28T13:42:09.702Z,97957.77186533135
2022-11-28T13:44:28.700Z,97956.47372642775
2022-11-28T14:01:44.830Z,97958.16864378835
2022-11-28T14:04:49.402Z,97960.30504048045
2022-11-28T14:07:37.337Z,97961.46251010486
2022-11-28T14:11:42.131Z,97964.04347623159
2022-11-28T14:31:29.527Z,97965.25993163497
2022-11-28T14:34:38.949Z,97966.39237553765
2022-11-28T14:37:48.462Z,97963.31796133856
2022-11-28T14:41:17.184Z,97961.61922858247
2022-11-28T14:44:51.410Z,97959.98181654971
2022-11-28T14:47:28.026Z,97958.89940201724
2022-11-28T14:51:16.428Z,97966.19753869732
2022-11-28T14:54:21.200Z,97960.09107226926
2022-11-28T14:57:21.782Z,97958.31193326326
2022-11-28T15:01:23.776Z,97963.64213465893
2022-11-28T15:04:34.278Z,97960.36839313657
2022-11-28T15:07:27.842Z,97963.51852355697
2022-11-28T15:11:27.729Z,97962.23007197013
2022-11-28T15:14:21.861Z,97959.74364996771
2022-11-28T15:17:22.180Z,97956.31959725436
2022-11-28T15:21:23.483Z,97955.94046479049
2022-11-28T15:24:27.732Z,97954.08538058789
2022-11-28T15:27:25.362Z,97952.44352940703
2022-11-28T15:31:21.152Z,97952.12417836607
2022-11-28T15:34:24.119Z,97950.61794702096
2022-11-28T15:37:18.560Z,97951.31072278965
2022-11-28T15:41:20.300Z,97954.65886921671
2022-11-28T15:44:18.428Z,97952.92234508948
2022-11-28T15:47:19.729Z,97953.68198369548
2022-11-28T15:51:25.739Z,97957.68429616201
2022-11-28T15:54:30.016Z,97951.38977814071
2022-11-28T15:57:19.543Z,97950.79090603197
2022-11-28T16:01:19.017Z,97945.85442020968
2022-11-28T16:04:18.289Z,97947.56620782624
2022-11-28T16:07:18.570Z,97947.51519916416
2022-11-28T16:11:20.088Z,97940.34553418569
2022-11-28T16:14:22.620Z,97939.40965198545
2022-11-28T16:17:22.329Z,97939.18988573838
2022-11-28T16:21:16.522Z,97935.0192700797
2022-11-28T16:24:25.032Z,97928.71974915956
2022-11-28T16:27:28.555Z,97924.14284756346
2022-11-28T16:31:20.774Z,97916.26070034494
2022-11-28T16:34:44.285Z,97914.08160926535
2022-11-28T16:37:21.402Z,97909.64459144602
2022-11-28T16:41:19.649Z,97905.01723355762
2022-11-28T16:44:18.982Z,97898.01915566526
2022-11-28T16:47:26.439Z,97898.34583623955
2022-11-28T16:51:35.923Z,97896.55669995026
2022-11-28T16:54:29.536Z,97901.98425414586
2022-11-28T16:57:17.956Z,97894.7965848961
2022-11-28T17:01:16.435Z,97894.29444083372
2022-11-28T17:04:22.139Z,97890.7423474708
2022-11-28T17:07:18.802Z,97888.63572333948
2022-11-28T17:11:19.545Z,97885.49408854888
2022-11-28T17:14:18.936Z,97887.57634800766
2022-11-28T17:17:19.484Z,97884.58970480788
2022-11-28T17:21:28.859Z,97884.71715269046
2022-11-28T17:24:24.517Z,97882.73113697651
2022-11-28T17:27:22.876Z,97875.86652022906
2022-11-28T17:31:17.671Z,97878.3464689974
2022-11-28T17:34:19.431Z,97874.63549320359
2022-11-28T17:37:17.027Z,97870.29533674882
2022-11-28T17:41:16.396Z,97871.56114453284
2022-11-28T17:44:19.081Z,97874.43810699074
2022-11-28T17:47:16.863Z,97874.7356113691
2022-11-28T17:51:17.244Z,97882.3674107597
2022-11-28T17:54:20.558Z,97878.79978856644
2022-11-28T17:57:18.908Z,97881.23509427774
2022-11-28T18:01:23.991Z,97878.7108546688
2022-11-28T18:04:16.642Z,97883.82051272382
2022-11-28T18:07:16.630Z,97883.53798788004
2022-11-28T18:11:20.030Z,97884.02051491165
2022-11-28T18:14:19.454Z,97878.93014639117
2022-11-28T18:17:16.671Z,97884.45711894469
2022-11-28T18:21:16.284Z,97880.81769972299
2022-11-28T18:24:16.569Z,97878.99838517809
2022-11-28T18:27:16.455Z,97878.37146981533
2022-11-28T18:31:19.514Z,97888.8069656995
2022-11-28T18:34:17.004Z,97881.27205561136
2022-11-28T18:37:16.983Z,97882.88954913674
2022-11-28T18:41:17.328Z,97883.15068081766
2022-11-28T18:44:17.281Z,97883.16551788777
2022-11-28T18:47:17.360Z,97878.44104939692
2022-11-28T18:51:18.867Z,97877.38993528404
2022-11-28T18:54:21.161Z,97881.30124643099
2022-11-28T18:57:16.813Z,97870.86782997816
2022-11-28T19:01:18.672Z,97861.02825523147
2022-11-28T19:04:17.211Z,97858.99880526453
2022-11-28T19:07:16.952Z,97861.3533466266
2022-11-28T19:11:16.792Z,97860.58362855906
2022-11-28T19:14:18.283Z,97862.13067635435
2022-11-28T19:17:16.490Z,97861.28455130616
2022-11-28T19:21:18.974Z,97865.32916043639
2022-11-28T19:24:16.723Z,97870.83715692014
2022-11-28T19:27:16.555Z,97866.86678305663
2022-11-28T19:31:19.690Z,97868.12776475534
2022-11-28T19:34:18.223Z,97860.09079812866
2022-11-28T19:37:17.707Z,97858.84161902183
2022-11-28T19:41:20.325Z,97857.0629822029
2022-11-28T19:44:17.007Z,97848.32906484777
2022-11-28T19:47:17.417Z,97844.0518979364
2022-11-28T20:01:19.114Z,97845.52326033344
2022-11-28T20:04:17.069Z,97842.79222460875
2022-11-28T20:07:16.970Z,97848.96235031658
2022-11-28T20:11:18.517Z,97843.32123852464
2022-11-28T20:14:18.153Z,97848.63420484611
2022-11-28T20:17:16.582Z,97853.52401879181
2022-11-28T20:21:18.114Z,97852.52911398144
2022-11-28T20:24:18.744Z,97854.05921749989
2022-11-28T20:27:16.541Z,97858.73647651711
2022-11-28T20:31:28.777Z,97860.57680763608
2022-11-28T20:42:08.080Z,97862.51910687813
2022-11-28T20:45:01.891Z,97857.99978867745
2022-11-28T20:48:03.446Z,97855.66107765469
2022-11-28T21:11:56.176Z,97851.14703131796
2022-11-28T21:14:29.657Z,97853.65564307108
2022-11-28T21:17:27.067Z,97859.95053266714
2022-11-28T21:21:18.235Z,97860.01593400257
2022-11-28T21:24:16.260Z,97852.71640015916
2022-11-28T21:27:18.789Z,97850.6908296637
2022-11-28T21:30:21.355Z,97852.73272056789
2022-11-28T21:31:39.656Z,97854.34194367733
2022-11-28T21:34:36.917Z,97847.64171577175
2022-11-28T21:37:37.269Z,97852.22263700418
2022-11-28T21:41:17.800Z,97854.06583498554
2022-11-28T21:44:16.990Z,97854.60276546395
2022-11-28T21:47:16.911Z,97853.75730523572
2022-11-28T21:51:19.401Z,97855.43190121534
2022-11-28T21:54:17.037Z,97852.34971206056
2022-11-28T21:57:17.188Z,97851.79174980466
2022-11-28T22:01:16.574Z,97855.19912356029
2022-11-28T22:04:22.604Z,97859.22285688043
2022-11-28T22:07:18.519Z,97865.20121492635
2022-11-28T22:11:16.893Z,97869.66807671616
2022-11-28T22:14:16.671Z,97871.66223969622
2022-11-28T22:17:16.300Z,97866.72510737456
2022-11-28T22:21:43.215Z,97871.25136870483
2022-11-28T22:24:17.042Z,97870.30115461389
2022-11-28T22:27:16.513Z,97868.88827583418
2022-11-28T22:31:19.005Z,97866.17694872769
2022-11-28T22:34:17.335Z,97872.06685378516
2022-11-28T22:37:17.063Z,97878.70629723335
2022-11-28T22:41:28.338Z,97878.02598113162
2022-11-28T22:44:18.201Z,97873.74964821676
2022-11-28T22:47:17.487Z,97877.54501230424
2022-11-28T22:51:39.205Z,97876.53662010957
2022-11-28T22:54:37.501Z,97873.66750268277
2022-11-28T22:57:36.882Z,97873.02174205257
2022-11-28T23:01:20.129Z,97871.23828921781
2022-11-28T23:04:17.147Z,97871.2201020182
2022-11-28T23:07:25.515Z,97863.46098010629
2022-11-28T23:11:18.355Z,97860.02162459565
2022-11-28T23:14:16.410Z,97857.1861437165
2022-11-28T23:17:16.352Z,97860.40683024643
2022-11-28T23:21:38.291Z,97860.06950873714
2022-11-28T23:24:36.519Z,97859.35804939877
2022-11-28T23:27:38.231Z,97859.47851603628
2022-11-28T23:31:37.187Z,97847.63442463015
2022-11-28T23:34:19.059Z,97842.95617318121
2022-11-28T23:37:18.946Z,97843.67846036605
2022-11-28T23:51:19.788Z,97824.83981471419
2022-11-28T23:54:17.736Z,97821.94453851308
2022-11-28T23:57:17.431Z,97817.01688328746
